createdAt,value
2022-11-30T00:00:40.634Z,101372.84
2022-11-30T00:03:45.872Z,101383.43
2022-11-30T00:06:51.876Z,101370.59
2022-11-30T00:09:57.706Z,101390.84
2022-11-30T00:13:03.304Z,101372.61
2022-11-30T00:16:11.723Z,101358.33
2022-11-30T00:19:17.028Z,101355.04
2022-11-30T00:22:23.407Z,101359.08
2022-11-30T00:25:28.272Z,101356.91
2022-11-30T00:28:35.101Z,101357.14
2022-11-30T00:31:41.825Z,101364.20
2022-11-30T00:34:47.910Z,101358.34
2022-11-30T00:37:54.758Z,101364.98
2022-11-30T00:40:54.154Z,101366.25
2022-11-30T00:43:40.726Z,101363.45
2022-11-30T00:46:32.756Z,101382.95
2022-11-30T00:49:25.619Z,101382.91
2022-11-30T00:52:30.296Z,101374.45
2022-11-30T00:55:38.183Z,101377.61
2022-11-30T00:58:36.719Z,101367.03
2022-11-30T01:01:42.798Z,101367.08
2022-11-30T01:04:47.858Z,101363.25
2022-11-30T01:07:54.652Z,101376.95
2022-11-30T01:11:02.096Z,101365.52
2022-11-30T01:14:09.705Z,101370.08
2022-11-30T01:17:16.349Z,101378.25
2022-11-30T01:20:22.922Z,101373.97
2022-11-30T01:23:28.075Z,101375.87
2022-11-30T01:26:34.081Z,101366.05
2022-11-30T01:29:40.035Z,101355.43
2022-11-30T01:32:45.853Z,101357.34
2022-11-30T01:35:51.821Z,101364.36
2022-11-30T01:39:02.746Z,101372.94
2022-11-30T01:42:08.614Z,101359.85
2022-11-30T01:45:14.284Z,101366.31
2022-11-30T01:48:22.082Z,101371.70
2022-11-30T01:51:27.698Z,101378.20
2022-11-30T01:54:39.676Z,101371.03
2022-11-30T01:58:02.872Z,101367.77
2022-11-30T02:01:08.520Z,101357.45
2022-11-30T02:04:45.493Z,101352.69
2022-11-30T02:07:51.660Z,101350.17
2022-11-30T02:11:02.210Z,101352.55
2022-11-30T02:14:31.842Z,101350.34
2022-11-30T02:17:56.860Z,101360.50
2022-11-30T02:21:23.415Z,101349.95
2022-11-30T02:24:39.974Z,101350.62
2022-11-30T02:28:16.941Z,101351.70
2022-11-30T02:31:25.409Z,101355.16
2022-11-30T02:34:33.209Z,101350.91
2022-11-30T02:37:37.981Z,101351.77
2022-11-30T02:40:43.997Z,101352.86
2022-11-30T02:43:48.870Z,101355.61
2022-11-30T02:47:34.062Z,101353.03
2022-11-30T02:50:33.150Z,101358.61
2022-11-30T02:53:38.162Z,101353.19
2022-11-30T02:56:43.826Z,101342.94
2022-11-30T02:59:49.406Z,101344.48
2022-11-30T03:02:55.434Z,101347.30
2022-11-30T03:06:02.138Z,101353.68
2022-11-30T03:09:08.402Z,101350.53
2022-11-30T03:12:13.805Z,101350.14
2022-11-30T03:15:20.324Z,101338.11
2022-11-30T03:18:25.198Z,101326.20
2022-11-30T03:21:31.125Z,101324.40
2022-11-30T03:24:29.613Z,101314.56
2022-11-30T03:27:35.904Z,101312.62
2022-11-30T03:30:42.789Z,101313.80
2022-11-30T03:33:48.524Z,101303.14
2022-11-30T03:36:54.156Z,101317.75
2022-11-30T03:40:00.008Z,101312.80
2022-11-30T03:43:05.861Z,101306.22
2022-11-30T03:46:11.604Z,101303.96
2022-11-30T03:49:10.611Z,101300.73
2022-11-30T03:51:55.940Z,101302.86
2022-11-30T03:54:48.522Z,101281.96
2022-11-30T03:57:40.927Z,101291.58
2022-11-30T04:00:46.087Z,101289.10
2022-11-30T04:03:52.445Z,101282.64
2022-11-30T04:06:57.585Z,101302.43
2022-11-30T04:10:08.277Z,101308.04
2022-11-30T04:13:10.928Z,101306.66
2022-11-30T04:16:16.735Z,101316.84
2022-11-30T04:19:21.732Z,101324.17
2022-11-30T04:22:26.719Z,101333.87
2022-11-30T04:25:32.204Z,101328.69
2022-11-30T04:28:38.605Z,101305.22
2022-11-30T04:31:45.191Z,101310.31
2022-11-30T04:34:51.801Z,101310.99
2022-11-30T04:37:58.485Z,101309.19
2022-11-30T04:41:04.794Z,101294.13
2022-11-30T04:44:10.797Z,101304.97
2022-11-30T04:47:15.884Z,101306.70
2022-11-30T04:50:22.344Z,101319.71
2022-11-30T04:53:28.537Z,101313.02
2022-11-30T04:56:27.779Z,101319.23
2022-11-30T04:59:35.378Z,101321.80
2022-11-30T05:02:42.225Z,101312.81
2022-11-30T05:05:47.248Z,101320.44
2022-11-30T05:08:52.782Z,101318.14
2022-11-30T05:11:58.358Z,101327.61
2022-11-30T05:15:04.239Z,101324.72
2022-11-30T05:18:16.052Z,101322.86
2022-11-30T05:21:23.275Z,101323.64
2022-11-30T05:24:29.010Z,101337.31
2022-11-30T05:27:35.533Z,101311.06
2022-11-30T05:30:42.173Z,101321.94
2022-11-30T05:33:47.883Z,101326.03
2022-11-30T05:36:53.031Z,101335.28
2022-11-30T05:39:59.605Z,101324.95
2022-11-30T05:43:10.283Z,101335.60
2022-11-30T05:46:17.476Z,101342.07
2022-11-30T05:49:23.461Z,101343.45
2022-11-30T05:52:28.938Z,101334.89
2022-11-30T05:55:34.282Z,101342.38
2022-11-30T05:58:40.327Z,101347.92
2022-11-30T06:01:46.404Z,101355.92
2022-11-30T06:04:51.280Z,101345.17
2022-11-30T06:07:56.940Z,101343.56
2022-11-30T06:11:02.788Z,101344.78
2022-11-30T06:14:09.717Z,101347.77
2022-11-30T06:17:16.879Z,101355.99
2022-11-30T06:20:24.768Z,101352.40
2022-11-30T06:23:30.416Z,101357.76
2022-11-30T06:26:35.927Z,101368.41
2022-11-30T06:29:41.693Z,101372.52
2022-11-30T06:32:47.374Z,101356.52
2022-11-30T06:36:01.700Z,101368.77
2022-11-30T06:39:07.189Z,101364.78
2022-11-30T06:42:12.459Z,101371.02
2022-11-30T06:45:18.293Z,101372.09
2022-11-30T06:48:24.117Z,101365.91
2022-11-30T06:51:28.857Z,101358.41
2022-11-30T06:54:34.394Z,101367.02
2022-11-30T06:57:46.942Z,101358.36
2022-11-30T07:00:53.630Z,101368.92
2022-11-30T07:03:59.243Z,101362.47
2022-11-30T07:07:04.495Z,101367.00
2022-11-30T07:10:12.952Z,101352.63
2022-11-30T07:13:18.905Z,101352.64
2022-11-30T07:16:24.906Z,101365.84
2022-11-30T07:19:30.148Z,101354.79
2022-11-30T07:22:35.591Z,101357.58
2022-11-30T07:25:58.551Z,101368.87
2022-11-30T07:29:08.352Z,101368.17
2022-11-30T07:32:13.717Z,101364.68
2022-11-30T07:35:19.457Z,101366.73
2022-11-30T07:38:24.971Z,101360.27
2022-11-30T07:41:30.690Z,101360.17
2022-11-30T07:44:37.012Z,101362.00
2022-11-30T07:47:41.766Z,101366.13
2022-11-30T07:50:47.916Z,101369.84
2022-11-30T07:53:54.531Z,101355.53
2022-11-30T07:57:00.107Z,101360.29
2022-11-30T08:00:05.703Z,101360.36
2022-11-30T08:03:11.032Z,101366.59
2022-11-30T08:06:19.888Z,101354.84
2022-11-30T08:09:29.943Z,101348.17
2022-11-30T08:12:35.894Z,101353.94
2022-11-30T08:15:41.434Z,101341.84
2022-11-30T08:18:48.369Z,101335.46
2022-11-30T08:21:59.026Z,101343.77
2022-11-30T08:25:08.573Z,101342.95
2022-11-30T08:28:15.868Z,101348.03
2022-11-30T08:31:25.284Z,101335.73
2022-11-30T08:34:30.862Z,101330.44
2022-11-30T08:37:38.405Z,101343.33
2022-11-30T08:40:44.502Z,101335.88
2022-11-30T08:43:50.022Z,101335.23
2022-11-30T08:46:54.586Z,101336.62
2022-11-30T08:50:00.004Z,101333.52
2022-11-30T08:53:07.892Z,101325.42
2022-11-30T08:56:18.000Z,101331.07
2022-11-30T08:59:23.527Z,101325.81
2022-11-30T09:02:30.370Z,101328.25
2022-11-30T09:05:36.040Z,101323.92
2022-11-30T09:08:41.680Z,101322.30
2022-11-30T09:11:47.761Z,101324.55
2022-11-30T09:14:58.048Z,101316.13
2022-11-30T09:18:01.183Z,101306.36
2022-11-30T09:21:07.872Z,101304.53
2022-11-30T09:24:13.142Z,101305.88
2022-11-30T09:27:17.682Z,101312.41
2022-11-30T09:30:24.678Z,101302.77
2022-11-30T09:33:31.137Z,101303.95
2022-11-30T09:36:37.810Z,101309.98
2022-11-30T09:39:43.439Z,101315.06
2022-11-30T09:43:37.728Z,101300.44
2022-11-30T09:46:59.392Z,101313.70
2022-11-30T09:50:04.315Z,101302.34
2022-11-30T09:53:18.065Z,101317.35
2022-11-30T09:56:38.491Z,101313.78
2022-11-30T09:59:46.135Z,101295.45
2022-11-30T10:02:53.287Z,101293.15
2022-11-30T10:10:30.871Z,101295.08
2022-11-30T10:13:05.701Z,101297.88
2022-11-30T10:16:34.374Z,101292.73
2022-11-30T10:20:03.192Z,101291.77
2022-11-30T10:23:28.341Z,101288.84
2022-11-30T10:26:46.822Z,101284.58
2022-11-30T10:29:55.254Z,101274.97
2022-11-30T10:33:04.002Z,101285.43
2022-11-30T10:36:12.436Z,101283.88
2022-11-30T10:39:22.708Z,101272.30
2022-11-30T10:42:43.843Z,101267.29
2022-11-30T10:45:50.527Z,101270.30
2022-11-30T10:48:51.469Z,101265.38
2022-11-30T10:51:43.840Z,101266.67
2022-11-30T10:54:49.460Z,101270.31
2022-11-30T10:57:55.715Z,101268.97
2022-11-30T11:01:15.592Z,101265.25
2022-11-30T11:04:36.993Z,101265.01
2022-11-30T11:07:42.160Z,101274.63
2022-11-30T11:10:57.785Z,101269.78
2022-11-30T11:14:02.922Z,101272.48
2022-11-30T11:17:21.576Z,101273.47
2022-11-30T11:20:55.799Z,101271.61
2022-11-30T11:24:03.200Z,101272.89
2022-11-30T11:27:10.224Z,101276.80
2022-11-30T11:30:44.750Z,101277.68
2022-11-30T11:33:49.734Z,101275.78
2022-11-30T11:36:56.062Z,101277.14
2022-11-30T11:40:18.683Z,101272.57
2022-11-30T11:43:30.094Z,101276.09
2022-11-30T11:46:36.734Z,101284.59
2022-11-30T11:49:54.664Z,101278.60
2022-11-30T11:53:00.859Z,101269.97
2022-11-30T11:56:19.644Z,101272.62
2022-11-30T12:00:18.397Z,101281.33
2022-11-30T12:03:56.961Z,101280.37
2022-11-30T12:07:02.445Z,101284.30
2022-11-30T12:10:52.998Z,101290.47
2022-11-30T12:13:57.272Z,101294.50
2022-11-30T12:17:19.314Z,101292.48
2022-11-30T12:20:32.945Z,101289.50
2022-11-30T12:23:50.300Z,101286.20
2022-11-30T12:27:16.593Z,101286.48
2022-11-30T12:31:00.466Z,101287.42
2022-11-30T12:34:17.464Z,101295.36
2022-11-30T12:37:58.996Z,101295.61
2022-11-30T12:41:44.776Z,101294.25
2022-11-30T12:45:13.304Z,101294.11
2022-11-30T12:48:47.110Z,101301.70
2022-11-30T12:52:05.652Z,101300.55
2022-11-30T12:55:40.204Z,101299.66
2022-11-30T12:59:03.789Z,101295.06
2022-11-30T13:02:42.000Z,101303.77
2022-11-30T13:06:04.336Z,101299.96
2022-11-30T13:09:50.728Z,101297.17
2022-11-30T13:13:00.466Z,101304.17
2022-11-30T13:16:05.785Z,101312.92
2022-11-30T13:19:15.722Z,101305.30
2022-11-30T13:22:25.171Z,101302.05
2022-11-30T13:28:58.816Z,101299.69
2022-11-30T13:32:56.773Z,101302.22
2022-11-30T13:35:55.042Z,101296.48
2022-11-30T13:39:01.114Z,101294.34
2022-11-30T13:42:31.405Z,101299.53
2022-11-30T13:45:47.189Z,101296.22
2022-11-30T13:48:55.656Z,101289.92
2022-11-30T13:52:22.061Z,101289.06
2022-11-30T13:55:09.494Z,101293.02
2022-11-30T13:58:19.852Z,101292.23
2022-11-30T14:01:42.636Z,101293.79
2022-11-30T14:04:49.437Z,101291.06
2022-11-30T14:07:58.069Z,101295.86
2022-11-30T14:11:04.898Z,101305.89
2022-11-30T14:14:10.010Z,101311.25
2022-11-30T14:17:15.612Z,101310.02
2022-11-30T14:20:37.608Z,101318.92
2022-11-30T14:23:51.163Z,101315.98
2022-11-30T14:26:54.569Z,101306.73
2022-11-30T14:29:49.592Z,101307.66
2022-11-30T14:33:02.722Z,101315.10
2022-11-30T14:36:10.584Z,101316.72
2022-11-30T14:39:16.552Z,101318.69
2022-11-30T14:42:39.071Z,101322.02
2022-11-30T14:45:46.616Z,101319.28
2022-11-30T14:48:53.628Z,101333.51
2022-11-30T14:52:03.081Z,101334.77
2022-11-30T14:55:44.341Z,101326.24
2022-11-30T14:59:16.466Z,101342.91
2022-11-30T15:02:24.483Z,101327.59
2022-11-30T15:05:37.560Z,101339.06
2022-11-30T15:08:50.002Z,101346.46
2022-11-30T15:12:02.603Z,101343.02
2022-11-30T15:15:41.889Z,101336.00
2022-11-30T15:18:47.610Z,101369.09
2022-11-30T15:21:55.179Z,101344.89
2022-11-30T15:25:00.831Z,101346.98
2022-11-30T15:28:06.597Z,101356.73
2022-11-30T15:31:13.351Z,101341.32
2022-11-30T15:34:19.992Z,101346.48
2022-11-30T15:37:26.630Z,101353.64
2022-11-30T15:40:53.181Z,101354.41
2022-11-30T15:43:56.194Z,101356.36
2022-11-30T15:47:14.684Z,101359.58
2022-11-30T15:50:46.471Z,101362.92
2022-11-30T15:54:05.762Z,101353.05
2022-11-30T15:57:12.502Z,101362.06
2022-11-30T16:00:36.220Z,101358.82
2022-11-30T16:03:41.779Z,101362.39
2022-11-30T19:25:19.281Z,101433.70
2022-11-30T19:28:24.898Z,101437.28
2022-11-30T19:31:32.950Z,101440.56
2022-11-30T19:34:39.412Z,101437.27
2022-11-30T19:37:45.463Z,101445.73
2022-11-30T19:40:53.142Z,101444.72
2022-11-30T19:44:03.790Z,101439.92
2022-11-30T19:47:09.061Z,101451.61
2022-11-30T19:50:14.675Z,101451.91
2022-11-30T19:53:19.799Z,101462.34
2022-11-30T19:56:32.795Z,101461.44
2022-11-30T19:59:39.664Z,101464.80
2022-11-30T20:02:45.811Z,101465.76
2022-11-30T20:05:51.655Z,101466.77
2022-11-30T20:08:56.652Z,101467.58
2022-11-30T20:12:02.867Z,101468.58
2022-11-30T20:15:01.715Z,101467.19
2022-11-30T20:18:07.758Z,101454.90
2022-11-30T20:21:13.197Z,101462.58
2022-11-30T20:24:22.527Z,101459.12
2022-11-30T20:27:29.922Z,101461.78
2022-11-30T20:30:36.679Z,101474.77
2022-11-30T20:33:42.624Z,101474.28
2022-11-30T20:36:50.287Z,101474.53
2022-11-30T20:39:57.351Z,101471.20
2022-11-30T20:43:05.194Z,101472.58
2022-11-30T20:46:10.777Z,101479.28
2022-11-30T20:49:17.346Z,101486.41
2022-11-30T20:52:22.063Z,101483.28
2022-11-30T20:55:27.517Z,101488.31
2022-11-30T20:58:32.910Z,101483.89
2022-11-30T21:01:39.355Z,101491.31
2022-11-30T21:04:45.916Z,101490.56
2022-11-30T21:07:51.689Z,101487.82
2022-11-30T21:10:57.619Z,101491.00
2022-11-30T21:14:03.784Z,101489.83
2022-11-30T21:17:09.735Z,101501.52
2022-11-30T21:20:15.545Z,101496.73
2022-11-30T21:23:24.996Z,101495.39
2022-11-30T21:26:39.084Z,101485.12
2022-11-30T21:29:44.897Z,101487.63
2022-11-30T21:32:50.940Z,101479.14
2022-11-30T21:35:49.655Z,101478.61
2022-11-30T21:38:42.363Z,101477.53
2022-11-30T21:41:47.322Z,101480.81
2022-11-30T21:44:52.874Z,101468.30
2022-11-30T21:47:58.616Z,101468.95
2022-11-30T21:51:03.692Z,101482.58
2022-11-30T21:54:16.436Z,101479.88
2022-11-30T21:57:23.113Z,101484.34
2022-11-30T22:00:29.790Z,101485.67
2022-11-30T22:03:35.692Z,101489.80
2022-11-30T22:06:43.612Z,101487.90
2022-11-30T22:09:51.348Z,101495.43
2022-11-30T22:12:57.834Z,101489.19
2022-11-30T22:16:03.569Z,101490.47
2022-11-30T22:19:09.972Z,101489.45
2022-11-30T22:22:15.572Z,101498.97
2022-11-30T22:25:21.677Z,101492.59
2022-11-30T22:28:26.947Z,101489.23
2022-11-30T22:31:34.175Z,101496.80
2022-11-30T22:34:39.622Z,101503.28
2022-11-30T22:37:44.323Z,101499.81
2022-11-30T22:40:49.939Z,101494.50
2022-11-30T22:43:57.334Z,101486.30
2022-11-30T22:47:04.147Z,101489.54
2022-11-30T22:50:09.564Z,101487.01
2022-11-30T22:53:15.590Z,101486.86
2022-11-30T22:56:24.379Z,101479.64
2022-11-30T22:59:30.828Z,101482.98
2022-11-30T23:02:36.356Z,101471.55
2022-11-30T23:05:42.090Z,101467.94
2022-11-30T23:08:48.325Z,101468.67
2022-11-30T23:11:53.948Z,101472.41
2022-11-30T23:15:00.760Z,101469.72
2022-11-30T23:18:06.673Z,101471.39
2022-11-30T23:21:11.695Z,101474.28
2022-11-30T23:24:18.294Z,101478.33
2022-11-30T23:27:24.127Z,101471.39
2022-11-30T23:30:30.310Z,101469.42
2022-11-30T23:33:37.979Z,101475.09
2022-11-30T23:36:43.922Z,101473.64
2022-11-30T23:39:49.165Z,101474.73
2022-11-30T23:42:55.702Z,101478.09
2022-11-30T23:46:01.257Z,101470.98
2022-11-30T23:49:07.876Z,101473.15
2022-11-30T23:52:13.113Z,101481.17
2022-11-30T23:55:20.352Z,101485.69
2022-11-30T23:58:26.173Z,101485.03
